Terminal Aerodrome Forecast
Issued by NWS

Current Version | Previous Version | Text Only | Print | Product List | Glossary On
Versions: 1 2 3 4 5 6 7 8 9 10 11 12 13 14 15 16 17 18 19 20 21 22 23 24 25 26 27
000
FTUS42 KCAE 020200 AAA
TAFDNL
TAF AMD
KDNL 020232Z 0203/0224 14003KT P6SM SCT250
      TEMPO 0211/0213 4SM BR
     FM021600 20005KT P6SM SCT050=

USA.gov is the U.S. government's official web portal to all federal, state and local government web resources and services.